createdAt,value
2018-10-12T00:00:15.613Z,101392.91
2018-10-12T00:02:45.868Z,101398.38
2018-10-12T00:05:18.830Z,101395.09
2018-10-12T00:07:50.536Z,101396.59
2018-10-12T00:10:24.336Z,101391.77
2018-10-12T00:12:55.006Z,101395.02
2018-10-12T00:15:26.737Z,101394.66
2018-10-12T00:17:59.146Z,101388.89
2018-10-12T00:20:29.816Z,101392.63
2018-10-12T00:22:59.973Z,101392.54
2018-10-12T00:25:30.340Z,101402.39
2018-10-12T00:28:03.307Z,101397.08
2018-10-12T00:30:33.464Z,101398.31
2018-10-12T00:33:06.073Z,101397.50
2018-10-12T00:35:38.005Z,101395.30
2018-10-12T00:38:09.527Z,101395.39
2018-10-12T00:40:43.025Z,101394.80
2018-10-12T00:43:12.933Z,101392.59
2018-10-12T00:45:44.528Z,101398.55
2018-10-12T00:48:16.550Z,101407.67
2018-10-12T00:50:46.595Z,101412.27
2018-10-12T00:53:17.038Z,101410.61
2018-10-12T00:55:49.096Z,101412.20
2018-10-12T00:58:21.896Z,101414.29
2018-10-12T01:00:52.524Z,101409.31
2018-10-12T01:03:24.071Z,101407.55
2018-10-12T01:05:55.746Z,101405.53
2018-10-12T01:08:26.764Z,101403.16
2018-10-12T01:10:58.239Z,101404.41
2018-10-12T01:13:28.192Z,101408.95
2018-10-12T01:15:59.745Z,101410.54
2018-10-12T01:18:29.600Z,101405.05
2018-10-12T01:20:59.615Z,101406.80
2018-10-12T01:23:30.057Z,101412.42
2018-10-12T01:26:03.856Z,101414.05
2018-10-12T01:28:35.521Z,101409.91
2018-10-12T01:31:07.388Z,101408.64
2018-10-12T01:33:39.388Z,101407.30
2018-10-12T01:36:09.225Z,101407.07
2018-10-12T01:38:43.524Z,101398.97
2018-10-12T01:41:13.406Z,101405.72
2018-10-12T01:43:46.380Z,101401.19
2018-10-12T01:46:20.549Z,101404.38
2018-10-12T01:48:54.270Z,101408.24
2018-10-12T01:51:24.260Z,101419.39
2018-10-12T01:53:55.362Z,101424.11
2018-10-12T01:56:25.938Z,101431.67
2018-10-12T01:58:55.857Z,101431.53
2018-10-12T02:01:25.663Z,101436.57
2018-10-12T02:03:57.694Z,101435.58
2018-10-12T02:06:27.975Z,101424.42
2018-10-12T02:08:58.101Z,101425.83
2018-10-12T02:11:28.222Z,101418.55
2018-10-12T02:13:59.462Z,101416.03
2018-10-12T02:16:31.707Z,101417.61
2018-10-12T02:19:03.203Z,101421.83
2018-10-12T02:21:36.442Z,101428.16
2018-10-12T02:24:07.389Z,101417.83
2018-10-12T02:26:39.521Z,101423.89
2018-10-12T02:29:11.681Z,101416.43
2018-10-12T02:31:44.246Z,101414.91
2018-10-12T02:34:14.280Z,101412.73
2018-10-12T02:36:47.371Z,101413.31
2018-10-12T02:39:17.834Z,101416.78
2018-10-12T02:41:47.852Z,101417.36
2018-10-12T02:44:19.307Z,101420.42
2018-10-12T02:46:49.934Z,101425.40
2018-10-12T02:49:19.957Z,101426.53
2018-10-12T02:51:50.929Z,101423.45
2018-10-12T02:54:21.554Z,101415.28
2018-10-12T02:56:51.094Z,101426.73
2018-10-12T02:59:21.814Z,101427.72
2018-10-12T03:01:51.643Z,101436.59
2018-10-12T03:04:21.348Z,101444.05
2018-10-12T03:06:53.142Z,101441.88
2018-10-12T03:09:22.694Z,101442.66
2018-10-12T03:11:53.431Z,101448.19
2018-10-12T03:14:23.921Z,101452.91
2018-10-12T03:16:56.070Z,101458.94
2018-10-12T03:19:27.078Z,101460.50
2018-10-12T03:21:57.067Z,101469.05
2018-10-12T03:24:27.014Z,101466.27
2018-10-12T03:26:57.642Z,101468.07
2018-10-12T03:29:27.777Z,101468.12
2018-10-12T03:32:00.873Z,101468.80
2018-10-12T03:34:30.927Z,101471.30
2018-10-12T03:37:00.940Z,101474.37
2018-10-12T03:39:32.635Z,101473.62
2018-10-12T03:42:05.574Z,101475.37
2018-10-12T03:44:36.062Z,101477.20
2018-10-12T03:47:07.238Z,101485.77
2018-10-12T03:49:41.130Z,101479.73
2018-10-12T03:52:12.354Z,101472.44
2018-10-12T03:54:42.964Z,101471.36
2018-10-12T03:57:13.143Z,101466.02
2018-10-12T03:59:46.043Z,101466.54
2018-10-12T04:02:16.009Z,101467.48
2018-10-12T04:04:46.059Z,101462.31
2018-10-12T04:07:16.651Z,101464.01
2018-10-12T04:09:48.199Z,101458.21
2018-10-12T04:12:18.324Z,101457.43
2018-10-12T04:14:53.193Z,101457.02
2018-10-12T04:17:25.565Z,101463.62
2018-10-12T04:19:57.563Z,101464.20
2018-10-12T04:22:28.502Z,101459.58
2018-10-12T04:24:59.361Z,101464.48
2018-10-12T04:27:32.618Z,101457.91
2018-10-12T04:30:02.661Z,101449.98
2018-10-12T04:32:33.416Z,101451.73
2018-10-12T04:35:07.077Z,101452.85
2018-10-12T04:37:37.253Z,101449.34
2018-10-12T04:40:35.046Z,101449.04
2018-10-12T04:43:05.470Z,101455.23
2018-10-12T04:45:37.845Z,101459.58
2018-10-12T04:48:10.942Z,101468.84
2018-10-12T04:50:41.184Z,101470.75
2018-10-12T04:53:12.009Z,101475.76
2018-10-12T04:55:43.288Z,101480.50
2018-10-12T04:58:14.931Z,101488.69
2018-10-12T05:00:45.972Z,101496.54
2018-10-12T05:03:16.781Z,101497.89
2018-10-12T05:05:49.967Z,101490.67
2018-10-12T05:08:20.938Z,101495.98
2018-10-12T05:10:52.252Z,101503.05
2018-10-12T05:13:25.352Z,101505.68
2018-10-12T05:15:56.720Z,101511.55
2018-10-12T05:21:28.987Z,101500.09
2018-10-12T05:24:01.418Z,101507.27
2018-10-12T05:26:34.109Z,101506.47
2018-10-12T05:29:06.145Z,101527.63
2018-10-12T05:31:37.857Z,101536.20
2018-10-12T05:34:08.188Z,101542.70
2018-10-12T05:36:39.510Z,101537.55
2018-10-12T05:39:14.127Z,101540.08
2018-10-12T05:41:45.337Z,101537.95
2018-10-12T05:44:15.528Z,101539.39
2018-10-12T05:46:46.462Z,101544.30
2018-10-12T05:49:33.582Z,101533.35
2018-10-12T05:52:05.447Z,101542.14
2018-10-12T05:54:38.766Z,101551.58
2018-10-12T05:57:10.409Z,101558.16
2018-10-12T05:59:43.607Z,101566.28
2018-10-12T06:02:19.617Z,101569.34
2018-10-12T06:04:49.677Z,101567.92
2018-10-12T06:07:19.509Z,101576.66
2018-10-12T06:09:50.616Z,101589.04
2018-10-12T06:12:21.837Z,101611.44
2018-10-12T06:14:53.275Z,101621.52
2018-10-12T06:17:25.448Z,101623.31
2018-10-12T06:19:56.560Z,101620.78
2018-10-12T06:22:27.595Z,101626.59
2018-10-12T06:24:59.877Z,101630.77
2018-10-12T06:27:32.707Z,101629.95
2018-10-12T06:30:04.936Z,101623.61
2018-10-12T06:32:36.264Z,101626.02
2018-10-12T06:35:06.605Z,101624.91
2018-10-12T06:37:36.674Z,101614.52
2018-10-12T06:40:07.724Z,101624.45
2018-10-12T06:44:22.998Z,101634.60
2018-10-12T06:46:54.153Z,101624.98
2018-10-12T06:49:24.722Z,101622.72
2018-10-12T06:51:56.435Z,101628.41
2018-10-12T06:54:28.702Z,101627.09
2018-10-12T06:57:03.467Z,101633.89
2018-10-12T06:59:41.072Z,101643.56
2018-10-12T07:02:29.485Z,101642.44
2018-10-12T07:05:02.560Z,101642.51
2018-10-12T07:07:37.807Z,101650.22
2018-10-12T07:10:08.195Z,101643.70
2018-10-12T07:12:38.807Z,101650.89
2018-10-12T07:15:10.989Z,101673.27
2018-10-12T07:17:42.554Z,101682.08
2018-10-12T07:20:15.049Z,101677.91
2018-10-12T07:22:47.461Z,117636.41
2018-10-12T07:25:18.055Z,117636.41
2018-10-12T07:27:53.361Z,117636.41
2018-10-12T07:30:26.676Z,117636.41
2018-10-12T14:22:38.228Z,101829.36
2018-10-12T14:25:08.643Z,101833.21
2018-10-12T14:27:42.510Z,101830.57
2018-10-12T14:30:14.681Z,101825.48
2018-10-12T14:32:59.716Z,101831.08
2018-10-12T14:35:31.030Z,101828.34
2018-10-12T14:38:02.310Z,101824.97
2018-10-12T14:40:32.447Z,101826.47
2018-10-12T14:43:04.025Z,101824.84
2018-10-12T14:48:16.652Z,101826.34
2018-10-12T14:50:46.966Z,101829.54
2018-10-12T14:53:17.049Z,101826.34
2018-10-12T14:55:48.221Z,101832.66
2018-10-12T14:58:19.264Z,101833.38
2018-10-12T15:00:50.099Z,101842.85
2018-10-12T15:03:20.637Z,101846.19
2018-10-12T15:05:50.760Z,101845.20
2018-10-12T15:08:20.886Z,101855.48
2018-10-12T15:10:51.383Z,101853.27
2018-10-12T15:13:22.022Z,101856.86
2018-10-12T15:15:52.315Z,101862.70
2018-10-12T15:18:23.388Z,101861.20
2018-10-12T15:20:53.469Z,101869.27
2018-10-12T15:23:23.759Z,101866.66
2018-10-12T15:25:53.923Z,101871.98
2018-10-12T15:28:24.789Z,101868.14
2018-10-12T15:30:55.267Z,101867.48
2018-10-12T15:33:26.715Z,101870.42
2018-10-12T15:35:58.632Z,101875.28
2018-10-12T15:38:29.285Z,101873.62
2018-10-12T15:40:59.405Z,101876.80
2018-10-12T15:43:30.099Z,101881.66
2018-10-12T15:46:00.184Z,101880.63
2018-10-12T15:48:31.059Z,101884.20
2018-10-12T15:51:01.134Z,101889.52
2018-10-12T15:53:33.710Z,101887.75
2018-10-12T15:58:44.854Z,101888.80
2018-10-12T16:01:17.332Z,101893.94
2018-10-12T16:03:52.191Z,101891.12
2018-10-12T16:06:24.962Z,101885.24
2018-10-12T16:08:55.968Z,101885.87
2018-10-12T16:11:27.834Z,101887.14
2018-10-12T16:13:58.456Z,101895.45
2018-10-12T16:16:29.603Z,101896.01
2018-10-12T16:19:00.553Z,101903.52
2018-10-12T16:21:34.207Z,101905.66
2018-10-12T16:24:15.407Z,101903.20
2018-10-12T16:26:47.131Z,101907.97
2018-10-12T16:29:33.332Z,101913.89
2018-10-12T16:32:05.454Z,101921.48
2018-10-12T16:34:41.244Z,101910.84
2018-10-12T16:37:13.212Z,101903.88
2018-10-12T16:39:45.368Z,101905.82
2018-10-12T16:42:17.449Z,101912.21
2018-10-12T16:44:49.883Z,101912.17
2018-10-12T16:47:21.049Z,101910.03
2018-10-12T16:49:54.702Z,101913.80
2018-10-12T16:52:25.169Z,101913.76
2018-10-12T16:54:55.658Z,101909.79
2018-10-12T16:57:27.586Z,101918.89
2018-10-12T16:59:58.469Z,101915.13
2018-10-12T17:02:32.339Z,101915.59
2018-10-12T17:05:11.047Z,101917.97
2018-10-12T17:07:43.593Z,101920.07
2018-10-12T17:10:19.883Z,101921.06
2018-10-12T17:12:51.810Z,101926.22
2018-10-12T17:18:23.599Z,101925.36
2018-10-12T17:21:05.124Z,101925.58
2018-10-12T17:23:45.584Z,101931.17
2018-10-12T17:26:27.708Z,101933.78
2018-10-12T17:29:01.761Z,101933.35
2018-10-12T17:31:34.126Z,101935.16
2018-10-12T17:34:10.718Z,101930.80
2018-10-12T17:36:44.339Z,101934.95
2018-10-12T17:39:16.673Z,101937.77
2018-10-12T17:41:49.578Z,101936.02
2018-10-12T17:44:21.503Z,101942.09
2018-10-12T17:46:55.151Z,101933.47
2018-10-12T17:49:32.146Z,101945.02
2018-10-12T17:52:07.272Z,101942.23
2018-10-12T17:54:44.708Z,101943.84
2018-10-12T17:57:18.281Z,101936.29
2018-10-12T18:00:06.315Z,101940.44
2018-10-12T18:02:43.395Z,101942.30
2018-10-12T18:05:32.488Z,101944.73
2018-10-12T18:11:01.422Z,101934.56
2018-10-12T18:13:51.603Z,101931.44
2018-10-12T18:16:40.118Z,101936.98
2018-10-12T18:19:16.133Z,101940.86
2018-10-12T18:21:49.717Z,101937.09
2018-10-12T18:27:17.773Z,101936.02
2018-10-12T18:29:55.949Z,101938.08
2018-10-12T18:32:32.849Z,101938.36
2018-10-12T18:35:14.131Z,101935.74
2018-10-12T18:37:54.554Z,101939.05
2018-10-12T18:40:48.923Z,101938.84
2018-10-12T18:49:18.678Z,101939.36
2018-10-12T18:51:53.865Z,101937.00
2018-10-12T18:54:26.396Z,101934.70
2018-10-12T18:56:59.864Z,101944.30
2018-10-12T18:59:30.884Z,101946.72
2018-10-12T19:02:05.108Z,101944.83
2018-10-12T19:07:30.544Z,101946.81
2018-10-12T19:10:05.959Z,101948.48
2018-10-12T19:12:51.165Z,101941.97
2018-10-12T19:15:23.940Z,101944.98
2018-10-12T19:17:56.417Z,101952.54
2018-10-12T19:20:32.237Z,101953.55
2018-10-12T19:23:04.188Z,101947.89
2018-10-12T19:25:36.484Z,101948.09
2018-10-12T19:28:08.613Z,101955.77
2018-10-12T19:30:45.447Z,101949.34
2018-10-12T19:33:18.591Z,101950.73
2018-10-12T19:35:51.698Z,101953.44
2018-10-12T19:38:23.503Z,101944.36
2018-10-12T19:40:55.504Z,101941.08
2018-10-12T19:43:35.179Z,101939.78
2018-10-12T19:46:11.650Z,101950.32
2018-10-12T19:48:44.347Z,101942.24
2018-10-12T19:51:15.919Z,101951.16
2018-10-12T19:53:48.054Z,101949.80
2018-10-12T19:56:24.568Z,101948.10
2018-10-12T19:58:56.707Z,101953.27
2018-10-12T20:01:33.038Z,101948.14
2018-10-12T20:04:05.650Z,101950.09
2018-10-12T20:06:38.541Z,101958.31
2018-10-12T20:09:19.098Z,101953.87
2018-10-12T20:12:00.108Z,101955.83
2018-10-12T20:14:35.643Z,101961.16
2018-10-12T20:17:09.820Z,101960.09
2018-10-12T20:19:51.372Z,101962.05
2018-10-12T20:22:32.137Z,101961.28
2018-10-12T20:25:03.717Z,101956.05
2018-10-12T20:27:34.760Z,101962.24
2018-10-12T20:30:12.353Z,101967.52
2018-10-12T20:32:43.579Z,101969.44
2018-10-12T20:35:18.536Z,101965.56
2018-10-12T20:37:53.039Z,101977.48
2018-10-12T20:40:26.531Z,101972.44
2018-10-12T20:43:00.243Z,101968.31
2018-10-12T20:48:34.617Z,101967.70
2018-10-12T20:51:19.459Z,101967.56
2018-10-12T20:53:58.406Z,101958.85
2018-10-12T20:56:41.171Z,101968.52
2018-10-12T20:59:20.020Z,101962.92
2018-10-12T21:01:53.701Z,101961.77
2018-10-12T21:04:26.622Z,101963.80
2018-10-12T21:06:59.224Z,101964.00
2018-10-12T21:09:29.984Z,101959.92
2018-10-12T21:12:01.842Z,101954.79
2018-10-12T21:14:32.943Z,101953.98
2018-10-12T21:17:05.867Z,101955.19
2018-10-12T21:19:47.559Z,101956.45
2018-10-12T21:22:28.178Z,101954.49
2018-10-12T21:25:04.698Z,101951.31
2018-10-12T21:27:36.404Z,101945.69
2018-10-12T21:30:21.783Z,101951.31
2018-10-12T21:33:02.607Z,101950.06
2018-10-12T21:35:49.563Z,101940.36
2018-10-12T21:38:32.364Z,101943.38
2018-10-12T21:41:08.192Z,101938.60
2018-10-12T21:53:14.415Z,101934.63
2018-10-12T22:20:55.141Z,101933.77
2018-10-12T22:23:50.445Z,101942.27
2018-10-12T22:35:59.652Z,101922.56
2018-10-12T22:38:37.194Z,101928.00
2018-10-12T22:41:20.355Z,101926.28
2018-10-12T22:43:53.978Z,101925.42
2018-10-12T23:24:16.777Z,101919.70
2018-10-12T23:26:52.079Z,101927.79
2018-10-12T23:29:30.728Z,101925.08
2018-10-12T23:32:11.002Z,101921.11
2018-10-12T23:34:46.651Z,101926.89
2018-10-12T23:37:19.002Z,101929.24
2018-10-12T23:39:53.127Z,101927.12
2018-10-12T23:42:25.236Z,101931.59
2018-10-12T23:44:59.249Z,101932.50
